Time;durP1;ratioP1;P1;durP2;ratioP2;P2;SDS_P1;SDS_P2;PMS_P1;PMS_P2;Temp;Humidity;BMP_temperature;BMP_pressure;BME280_temperature;BME280_humidity;BME280_pressure;Samples;Min_cycle;Max_cycle;Signal;HPM_P1;HPM_P2
2023/03/12 00:01:33;;;;;;;8.75;4.30;;;;;;;0.09;100.00;101179.78;5056793;28;20371;-70
2023/03/12 00:04:01;;;;;;;8.95;4.28;;;;;;;0.12;100.00;101183.13;5074296;28;20032;-70
2023/03/12 00:06:27;;;;;;;7.90;4.47;;;;;;;0.18;100.00;101187.25;5074422;28;20043;-70
2023/03/12 00:08:52;;;;;;;7.45;4.07;;;;;;;0.22;100.00;101175.72;5074503;28;20444;-71
2023/03/12 00:11:20;;;;;;;13.38;4.65;;;;;;;0.28;100.00;101175.47;5057180;28;20135;-71
2023/03/12 00:13:53;;;;;;;10.60;4.90;;;;;;;0.31;100.00;101177.13;5074338;28;20036;-70
2023/03/12 00:16:19;;;;;;;10.95;4.80;;;;;;;0.34;100.00;101167.38;5074582;28;20166;-70
2023/03/12 00:18:50;;;;;;;6.72;4.00;;;;;;;0.37;100.00;101161.16;5074286;28;20444;-70
2023/03/12 00:21:16;;;;;;;10.23;4.67;;;;;;;0.39;100.00;101153.22;5056644;28;20038;-70
2023/03/12 00:23:41;;;;;;;7.63;4.47;;;;;;;0.42;100.00;101153.09;5074541;28;20695;-70
2023/03/12 00:26:10;;;;;;;7.20;4.53;;;;;;;0.44;100.00;101157.34;5074118;28;20098;-71
2023/03/12 00:28:36;;;;;;;11.77;4.90;;;;;;;0.48;100.00;101155.47;5073911;28;20075;-70
2023/03/12 00:31:11;;;;;;;16.77;5.10;;;;;;;0.48;100.00;101151.06;5074016;28;20021;-70
2023/03/12 00:33:36;;;;;;;17.10;5.28;;;;;;;0.47;100.00;101145.91;5073835;28;20025;-69
2023/03/12 00:36:02;;;;;;;12.05;4.90;;;;;;;0.51;100.00;101139.63;5073932;28;20028;-70
2023/03/12 00:38:27;;;;;;;9.77;5.43;;;;;;;0.53;100.00;101143.84;5074025;28;20047;-70
2023/03/12 00:40:52;;;;;;;9.20;4.97;;;;;;;0.56;100.00;101137.63;5074126;28;20024;-70
2023/03/12 00:43:18;;;;;;;13.43;5.15;;;;;;;0.59;100.00;101134.03;5073787;28;20032;-70
2023/03/12 00:45:44;;;;;;;9.32;5.20;;;;;;;0.62;100.00;101126.88;5073605;28;20021;-70
2023/03/12 00:48:09;;;;;;;10.05;5.50;;;;;;;0.63;100.00;101122.53;5073739;28;20472;-70
2023/03/12 00:50:34;;;;;;;10.38;5.13;;;;;;;0.64;100.00;101130.31;5073786;28;20037;-70
2023/03/12 00:53:00;;;;;;;10.10;5.30;;;;;;;0.65;100.00;101129.38;5073311;28;20028;-72
2023/03/12 00:55:25;;;;;;;8.30;4.93;;;;;;;0.66;100.00;101125.84;5073519;28;20033;-71
2023/03/12 00:57:51;;;;;;;9.90;4.97;;;;;;;0.67;100.00;101127.56;5073522;28;20107;-70
2023/03/12 01:00:17;;;;;;;10.63;4.72;;;;;;;0.71;100.00;101136.13;5073095;28;20354;-71
2023/03/12 01:02:42;;;;;;;8.75;4.78;;;;;;;0.74;100.00;101133.34;5073496;28;20036;-71
2023/03/12 01:05:11;;;;;;;15.13;4.97;;;;;;;0.79;100.00;101141.00;5073293;28;20055;-70
2023/03/12 01:07:36;;;;;;;8.30;4.65;;;;;;;0.80;100.00;101135.69;5074018;28;20020;-71
2023/03/12 01:10:03;;;;;;;10.75;4.85;;;;;;;0.81;100.00;101139.19;5055500;28;20082;-71
2023/03/12 01:12:28;;;;;;;16.02;5.18;;;;;;;0.82;100.00;101130.38;5073679;28;20070;-71
2023/03/12 01:14:54;;;;;;;14.10;4.80;;;;;;;0.84;100.00;101118.09;5072878;28;20024;-71
2023/03/12 01:17:19;;;;;;;8.25;4.75;;;;;;;0.85;100.00;101111.91;5073235;28;20032;-71
2023/03/12 01:19:44;;;;;;;12.07;4.90;;;;;;;0.87;100.00;101120.56;5073203;28;20342;-71
2023/03/12 01:22:10;;;;;;;10.95;5.05;;;;;;;0.89;100.00;101118.72;5073327;28;20495;-71
2023/03/12 01:24:35;;;;;;;10.02;4.43;;;;;;;0.93;100.00;101115.03;5073107;28;20441;-71
2023/03/12 01:27:01;;;;;;;11.57;4.10;;;;;;;0.92;100.00;101100.22;5073435;28;20024;-71
2023/03/12 01:29:26;;;;;;;7.78;4.60;;;;;;;0.95;100.00;101100.09;5073380;28;20029;-71
2023/03/12 01:31:51;;;;;;;12.45;4.18;;;;;;;0.97;100.00;101097.41;5073153;28;20028;-71
2023/03/12 01:34:17;;;;;;;18.85;4.93;;;;;;;1.00;100.00;101090.25;5073378;28;20035;-71
2023/03/12 01:36:43;;;;;;;8.32;4.10;;;;;;;1.04;100.00;101086.56;5073385;28;20059;-71
2023/03/12 01:39:09;;;;;;;7.97;4.20;;;;;;;1.09;100.00;101088.13;5072989;28;20039;-72
2023/03/12 01:41:35;;;;;;;9.93;4.00;;;;;;;1.12;100.00;101087.97;5072788;28;20032;-71
2023/03/12 01:44:02;;;;;;;7.00;3.72;;;;;;;1.12;100.00;101080.97;5072871;28;20107;-71
2023/03/12 01:46:38;;;;;;;8.73;4.00;;;;;;;1.17;100.00;101072.88;5073178;28;20044;-71
2023/03/12 01:49:09;;;;;;;9.13;3.65;;;;;;;1.17;100.00;101068.47;5072895;28;20036;-71
2023/03/12 01:51:46;;;;;;;7.63;3.92;;;;;;;1.18;100.00;101057.09;5072635;28;20465;-71
2023/03/12 01:54:16;;;;;;;13.95;4.70;;;;;;;1.18;100.00;101056.22;5073101;28;20169;-71
2023/03/12 01:56:41;;;;;;;12.23;4.38;;;;;;;1.21;100.00;101058.72;5073009;28;20029;-71
2023/03/12 01:59:15;;;;;;;12.30;4.28;;;;;;;1.20;100.00;101052.59;5073187;28;20456;-71
2023/03/12 02:01:42;;;;;;;14.15;4.13;;;;;;;1.20;100.00;101044.75;5072591;28;20124;-71
2023/03/12 02:04:07;;;;;;;9.00;3.78;;;;;;;1.20;100.00;101046.53;5072877;28;20025;-70
2023/03/12 02:06:48;;;;;;;9.05;4.20;;;;;;;1.18;100.00;101043.13;5072796;28;20036;-70
2023/03/12 02:09:14;;;;;;;9.18;3.90;;;;;;;1.19;100.00;101036.97;5072729;28;20027;-70
2023/03/12 02:11:39;;;;;;;11.60;4.13;;;;;;;1.20;100.00;101030.81;5072694;28;20029;-70
2023/03/12 02:14:04;;;;;;;10.13;4.00;;;;;;;1.21;100.00;101029.88;5074557;28;20104;-71
2023/03/12 02:16:30;;;;;;;9.15;4.63;;;;;;;1.21;100.00;101015.00;5076381;28;20107;-70
2023/03/12 02:18:59;;;;;;;14.52;4.90;;;;;;;1.23;100.00;101015.75;5076508;28;20344;-70
2023/03/12 02:21:32;;;;;;;8.45;4.10;;;;;;;1.23;100.00;101018.38;5076380;28;20059;-71
2023/03/12 02:24:20;;;;;;;9.75;4.30;;;;;;;1.26;100.00;101013.94;5059220;28;20037;-70
2023/03/12 02:26:47;;;;;;;6.47;4.30;;;;;;;1.26;100.00;101011.31;5076882;28;20028;-70
2023/03/12 02:29:13;;;;;;;10.20;4.55;;;;;;;1.27;100.00;101019.09;5076453;28;20031;-70
2023/03/12 02:31:51;;;;;;;8.80;4.22;;;;;;;1.29;100.00;101014.63;5076559;28;20032;-70
2023/03/12 02:34:16;;;;;;;10.85;4.00;;;;;;;1.33;100.00;101016.19;5076327;28;20067;-70
2023/03/12 02:36:42;;;;;;;6.80;3.38;;;;;;;1.37;100.00;101011.63;5076348;28;20059;-71
2023/03/12 02:39:10;;;;;;;7.72;4.22;;;;;;;1.38;100.00;101016.78;5076112;28;20028;-71
2023/03/12 02:41:40;;;;;;;8.48;3.85;;;;;;;1.40;100.00;101004.47;5076241;28;20521;-70
2023/03/12 02:44:32;;;;;;;9.93;4.20;;;;;;;1.41;100.00;101002.69;5075696;28;20052;-70
2023/03/12 02:46:59;;;;;;;6.93;4.05;;;;;;;1.41;100.00;100989.56;5072121;28;20041;-70
2023/03/12 02:49:29;;;;;;;15.23;4.60;;;;;;;1.39;100.00;100986.19;5075997;28;20024;-70
2023/03/12 02:51:54;;;;;;;10.27;4.25;;;;;;;1.36;100.00;100987.19;5075968;28;20056;-70
2023/03/12 02:54:21;;;;;;;10.90;4.22;;;;;;;1.33;100.00;100984.72;5075945;28;20193;-70
2023/03/12 02:56:48;;;;;;;8.68;4.15;;;;;;;1.29;100.00;100980.53;5075630;28;20028;-71
2023/03/12 02:59:14;;;;;;;8.90;4.10;;;;;;;1.25;100.00;100981.59;5075786;28;20415;-72
2023/03/12 03:01:40;;;;;;;10.93;4.07;;;;;;;1.21;100.00;100966.97;5075898;28;20046;-72
2023/03/12 03:04:08;;;;;;;11.25;4.13;;;;;;;1.16;100.00;100963.72;5075663;28;20039;-71
2023/03/12 03:06:36;;;;;;;7.65;3.85;;;;;;;1.11;100.00;100948.22;5076058;28;20024;-71
2023/03/12 03:09:02;;;;;;;6.25;3.60;;;;;;;1.08;100.00;100944.91;5075495;28;20469;-71
2023/03/12 03:11:28;;;;;;;5.82;3.55;;;;;;;1.07;100.00;100951.06;5076003;28;20202;-72
2023/03/12 03:13:54;;;;;;;10.55;3.70;;;;;;;1.06;100.00;100952.84;5075936;28;20172;-72
2023/03/12 03:16:20;;;;;;;9.23;3.95;;;;;;;1.05;100.00;100954.59;5076066;28;20077;-71
2023/03/12 03:18:46;;;;;;;10.85;4.20;;;;;;;1.07;100.00;100948.44;5075214;28;20044;-72
2023/03/12 03:21:15;;;;;;;14.73;4.22;;;;;;;1.11;100.00;100945.59;5076059;28;20400;-71
2023/03/12 03:23:48;;;;;;;6.97;3.35;;;;;;;1.15;100.00;100941.03;5075604;28;20518;-71
2023/03/12 03:26:15;;;;;;;8.90;4.32;;;;;;;1.16;100.00;100932.25;5073560;28;20122;-72
2023/03/12 03:28:41;;;;;;;10.18;3.88;;;;;;;1.16;100.00;100932.25;5075717;28;20021;-71
2023/03/12 03:31:06;;;;;;;11.10;4.35;;;;;;;1.17;100.00;100921.69;5075928;28;20051;-71
2023/03/12 03:33:34;;;;;;;11.73;4.25;;;;;;;1.18;100.00;100922.53;5057331;28;20101;-72
2023/03/12 03:36:01;;;;;;;14.25;3.70;;;;;;;1.19;100.00;100919.00;5075175;28;20032;-71
2023/03/12 03:38:27;;;;;;;24.27;4.32;;;;;;;1.20;100.00;100911.06;5075198;28;20033;-71
2023/03/12 03:40:53;;;;;;;14.40;4.53;;;;;;;1.20;100.00;100900.56;5075141;28;20457;-72
2023/03/12 03:43:19;;;;;;;13.23;4.00;;;;;;;1.22;100.00;100901.38;5075079;28;20029;-71
2023/03/12 03:45:44;;;;;;;7.63;3.90;;;;;;;1.21;100.00;100891.78;5075310;28;20028;-72
2023/03/12 03:48:11;;;;;;;15.77;4.50;;;;;;;1.23;100.00;100889.94;5074628;28;20115;-71
2023/03/12 03:50:40;;;;;;;11.50;3.90;;;;;;;1.26;100.00;100891.56;5074585;28;20025;-71
2023/03/12 03:53:08;;;;;;;20.77;3.92;;;;;;;1.28;100.00;100888.84;5075231;28;20032;-71
2023/03/12 03:55:37;;;;;;;12.73;3.92;;;;;;;1.28;100.00;100876.59;5074568;28;20028;-71
2023/03/12 03:58:02;;;;;;;14.35;4.32;;;;;;;1.29;100.00;100878.28;5074453;28;20052;-72
2023/03/12 04:00:28;;;;;;;11.35;4.35;;;;;;;1.25;100.00;100865.44;5074569;28;20028;-72
2023/03/12 04:02:54;;;;;;;7.80;3.85;;;;;;;1.23;100.00;100871.59;5074776;28;20020;-71
2023/03/12 04:05:20;;;;;;;9.52;4.18;;;;;;;1.20;100.00;100876.16;5074560;28;20408;-71
2023/03/12 04:07:45;;;;;;;8.93;3.40;;;;;;;1.21;100.00;100878.69;5074702;28;20036;-71
2023/03/12 04:10:11;;;;;;;10.30;4.15;;;;;;;1.19;100.00;100875.28;5074615;28;20063;-71
2023/03/12 04:12:37;;;;;;;7.85;4.03;;;;;;;1.18;100.00;100881.47;5074222;28;20526;-71
2023/03/12 04:15:03;;;;;;;8.30;4.18;;;;;;;1.19;100.00;100884.94;5074640;28;20032;-71
2023/03/12 04:17:28;;;;;;;10.80;4.28;;;;;;;1.24;100.00;100885.56;5073943;28;20029;-71
2023/03/12 04:19:53;;;;;;;15.02;4.95;;;;;;;1.29;100.00;100885.31;5056014;28;20090;-71
2023/03/12 04:22:19;;;;;;;9.27;5.20;;;;;;;1.28;100.00;100879.22;5074854;28;20047;-72
2023/03/12 04:24:44;;;;;;;9.57;5.45;;;;;;;1.22;100.00;100871.66;5074755;28;20031;-72
2023/03/12 04:27:09;;;;;;;10.25;5.78;;;;;;;1.17;100.00;100857.97;5074596;28;20036;-71
2023/03/12 04:29:35;;;;;;;10.77;6.10;;;;;;;1.10;100.00;100849.53;5056264;28;20116;-70
2023/03/12 04:32:00;;;;;;;10.38;6.25;;;;;;;1.05;100.00;100844.53;5074088;28;20414;-72
2023/03/12 04:34:25;;;;;;;18.88;7.28;;;;;;;1.00;100.00;100846.56;5073729;28;20024;-72
2023/03/12 04:36:51;;;;;;;12.05;6.30;;;;;;;0.95;100.00;100818.88;5073614;28;20032;-72
2023/03/12 04:39:18;;;;;;;15.65;6.97;;;;;;;0.90;100.00;100821.75;5056021;28;20036;-72
2023/03/12 04:41:44;;;;;;;13.43;7.45;;;;;;;0.85;100.00;100815.88;5074285;28;20035;-72
2023/03/12 04:44:10;;;;;;;12.52;7.07;;;;;;;0.80;100.00;100818.72;5073804;28;20021;-72
2023/03/12 04:46:35;;;;;;;16.17;6.43;;;;;;;0.79;100.00;100818.81;5073735;28;20039;-72
2023/03/12 04:49:01;;;;;;;16.17;6.70;;;;;;;0.77;100.00;100828.50;5074323;28;20035;-72
2023/03/12 04:51:28;;;;;;;16.55;6.90;;;;;;;0.76;100.00;100837.28;5073350;28;20029;-72
2023/03/12 04:53:54;;;;;;;16.02;7.63;;;;;;;0.76;100.00;100829.44;5073697;28;20092;-73
2023/03/12 04:56:19;;;;;;;13.65;7.60;;;;;;;0.76;100.00;100827.69;5073354;28;20064;-71
2023/03/12 04:58:44;;;;;;;13.20;7.13;;;;;;;0.81;100.00;100832.69;5073653;28;20112;-72
2023/03/12 05:01:39;;;;;;;18.83;7.82;;;;;;;0.80;100.00;100825.75;5073597;28;20070;-71
2023/03/12 05:04:05;;;;;;;16.40;7.82;;;;;;;0.83;100.00;100830.81;5052634;28;20053;-72
2023/03/12 05:06:31;;;;;;;14.15;7.88;;;;;;;0.85;100.00;100823.72;5073784;28;20113;-71
2023/03/12 05:08:57;;;;;;;13.63;8.07;;;;;;;0.86;100.00;100815.78;5073629;28;20118;-72
2023/03/12 05:11:22;;;;;;;16.50;8.05;;;;;;;0.88;100.00;100821.81;5073332;28;20559;-71
2023/03/12 05:13:48;;;;;;;16.40;7.78;;;;;;;0.90;100.00;100821.75;5073024;28;20413;-72
2023/03/12 05:16:15;;;;;;;14.57;8.38;;;;;;;0.91;100.00;100826.06;5073196;28;20036;-71
2023/03/12 05:18:41;;;;;;;14.73;8.25;;;;;;;0.92;100.00;100826.91;5073053;28;20058;-71
2023/03/12 05:21:10;;;;;;;16.85;8.60;;;;;;;0.92;100.00;100819.88;5056043;28;20045;-71
2023/03/12 05:23:38;;;;;;;16.35;8.25;;;;;;;0.95;100.00;100829.38;5073548;28;20431;-72
2023/03/12 05:26:06;;;;;;;14.85;8.30;;;;;;;0.97;100.00;100822.25;5073379;28;20038;-71
2023/03/12 05:28:32;;;;;;;14.30;8.05;;;;;;;0.96;100.00;100831.06;5073154;28;20484;-71
2023/03/12 05:30:58;;;;;;;15.82;8.02;;;;;;;0.95;100.00;100827.59;5073219;28;20025;-71
2023/03/12 05:33:25;;;;;;;16.33;7.95;;;;;;;0.96;100.00;100823.22;5073392;28;20025;-71
2023/03/12 05:35:51;;;;;;;15.98;8.77;;;;;;;0.95;100.00;100819.72;5073322;28;20064;-70
2023/03/12 05:38:17;;;;;;;16.75;8.57;;;;;;;0.93;100.00;100818.97;5073486;28;20071;-71
2023/03/12 05:40:42;;;;;;;25.58;9.77;;;;;;;0.92;100.00;100812.03;5073030;28;20107;-70
2023/03/12 05:43:08;;;;;;;14.93;9.43;;;;;;;0.91;100.00;100810.34;5073015;28;20025;-71
2023/03/12 05:45:33;;;;;;;18.42;9.73;;;;;;;0.91;100.00;100810.34;5072811;28;20032;-70
2023/03/12 05:47:58;;;;;;;17.65;9.20;;;;;;;0.90;100.00;100808.63;5072177;28;20032;-71
2023/03/12 05:50:24;;;;;;;19.42;10.18;;;;;;;0.90;100.00;100800.78;5072560;28;20025;-71
2023/03/12 05:52:49;;;;;;;13.48;9.80;;;;;;;0.90;100.00;100811.25;5072905;28;20111;-71
2023/03/12 05:55:15;;;;;;;18.38;10.90;;;;;;;0.89;100.00;100809.56;5072849;28;20338;-71
2023/03/12 05:57:40;;;;;;;21.08;10.63;;;;;;;0.89;100.00;100806.94;5072787;28;20029;-71
2023/03/12 06:00:07;;;;;;;22.35;10.90;;;;;;;0.88;100.00;100811.34;5072740;28;20063;-72
2023/03/12 06:02:32;;;;;;;20.05;11.38;;;;;;;0.88;100.00;100811.34;5072760;28;20382;-71
2023/03/12 06:04:57;;;;;;;22.60;11.07;;;;;;;0.88;100.00;100810.47;5072554;28;20461;-71
2023/03/12 06:07:23;;;;;;;24.00;12.15;;;;;;;0.90;100.00;100813.88;5072682;28;20024;-71
2023/03/12 06:09:49;;;;;;;24.70;11.48;;;;;;;0.91;100.00;100804.25;5072817;28;20051;-71
2023/03/12 06:12:14;;;;;;;19.05;11.88;;;;;;;0.91;100.00;100801.63;5055223;28;20472;-70
2023/03/12 06:14:39;;;;;;;17.98;12.20;;;;;;;0.92;100.00;100795.47;5072454;28;20095;-70
2023/03/12 06:17:05;;;;;;;20.38;12.57;;;;;;;0.93;100.00;100799.78;5072448;28;20162;-70
2023/03/12 06:19:30;;;;;;;19.20;13.10;;;;;;;0.95;100.00;100796.13;5072475;28;20456;-70
2023/03/12 06:21:56;;;;;;;17.40;13.20;;;;;;;0.97;100.00;100788.19;5072451;28;20049;-70
2023/03/12 06:24:21;;;;;;;21.40;14.00;;;;;;;0.97;100.00;100778.59;5072412;28;20025;-70
2023/03/12 06:26:46;;;;;;;23.27;13.15;;;;;;;1.01;100.00;100776.66;5072798;28;20051;-70
2023/03/12 06:29:12;;;;;;;29.35;14.93;;;;;;;1.01;100.00;100777.47;5072853;28;20338;-71
2023/03/12 06:31:38;;;;;;;23.52;15.05;;;;;;;1.04;100.00;100779.94;5072476;28;20361;-71
2023/03/12 06:34:04;;;;;;;22.75;14.95;;;;;;;1.06;100.00;100766.78;5072386;28;20445;-70
2023/03/12 06:36:29;;;;;;;26.73;15.57;;;;;;;1.09;100.00;100760.53;5072365;28;20048;-71
2023/03/12 06:38:55;;;;;;;29.50;17.10;;;;;;;1.15;100.00;100770.69;5072977;28;20106;-71
2023/03/12 06:41:20;;;;;;;25.75;17.85;;;;;;;1.17;100.00;100771.47;5072187;28;20407;-71
2023/03/12 06:43:46;;;;;;;30.08;17.67;;;;;;;1.20;100.00;100760.81;5072172;28;20066;-71
2023/03/12 06:46:14;;;;;;;31.27;17.80;;;;;;;1.22;100.00;100769.44;5072206;28;20060;-71
2023/03/12 06:48:40;;;;;;;28.33;18.13;;;;;;;1.25;100.00;100757.94;5072264;28;20016;-70
2023/03/12 06:51:07;;;;;;;31.13;17.95;;;;;;;1.26;100.00;100765.72;5072409;28;20411;-71
2023/03/12 06:53:33;;;;;;;31.10;19.30;;;;;;;1.29;100.00;100762.94;5072196;28;20025;-71
2023/03/12 06:55:59;;;;;;;31.58;20.20;;;;;;;1.31;100.00;100762.88;5054433;28;20020;-71
2023/03/12 06:58:25;;;;;;;30.50;19.20;;;;;;;1.34;100.00;100768.78;5072134;28;20458;-72
2023/03/12 07:00:51;;;;;;;31.38;21.17;;;;;;;1.39;100.00;100768.56;5074481;28;20040;-72
2023/03/12 07:03:17;;;;;;;34.95;20.77;;;;;;;1.43;100.00;100777.94;5075471;28;20032;-72
2023/03/12 07:05:44;;;;;;;35.08;22.13;;;;;;;1.44;100.00;100771.78;5075638;28;20034;-71
2023/03/12 07:08:10;;;;;;;35.47;22.67;;;;;;;1.47;100.00;100766.38;5075677;28;20036;-71
2023/03/12 07:10:35;;;;;;;36.35;22.45;;;;;;;1.50;100.00;100776.69;5075601;28;20036;-72
2023/03/12 07:13:01;;;;;;;39.65;23.33;;;;;;;1.53;100.00;100779.13;5076130;28;20119;-72
2023/03/12 07:15:26;;;;;;;38.55;23.10;;;;;;;1.59;100.00;100784.06;5075598;28;20445;-71
2023/03/12 07:17:52;;;;;;;45.67;24.77;;;;;;;1.64;100.00;100778.56;5075598;28;20032;-72
2023/03/12 07:20:18;;;;;;;47.67;25.48;;;;;;;1.71;100.00;100769.44;5075642;28;20349;-73
2023/03/12 07:22:48;;;;;;;41.47;24.63;;;;;;;1.77;100.00;100770.88;5075880;28;20064;-71
2023/03/12 07:25:15;;;;;;;47.92;26.38;;;;;;;1.84;100.00;100771.41;5075616;28;20481;-72
2023/03/12 07:27:42;;;;;;;50.67;26.77;;;;;;;1.89;100.00;100771.97;5075678;28;20197;-72
2023/03/12 07:30:08;;;;;;;51.05;27.77;;;;;;;1.96;100.00;100781.22;5075398;28;20039;-72
2023/03/12 07:32:35;;;;;;;53.67;25.98;;;;;;;2.05;100.00;100777.22;5075641;28;20460;-71
2023/03/12 07:35:01;;;;;;;46.15;25.90;;;;;;;2.10;100.00;100785.69;5075033;28;20576;-71
2023/03/12 07:37:26;;;;;;;51.35;25.70;;;;;;;2.14;100.00;100781.97;5075239;28;20119;-72
2023/03/12 07:39:53;;;;;;;49.58;25.63;;;;;;;2.21;100.00;100777.19;5075124;28;20380;-71
2023/03/12 07:42:18;;;;;;;55.38;25.75;;;;;;;2.29;100.00;100785.50;5077761;28;20075;-71
2023/03/12 07:44:44;;;;;;;45.65;23.45;;;;;;;2.37;100.00;100792.94;5075082;28;20029;-71
2023/03/12 07:47:09;;;;;;;45.70;23.73;;;;;;;2.47;100.00;100791.47;5074985;28;20056;-71
2023/03/12 07:49:34;;;;;;;44.08;22.75;;;;;;;2.52;100.00;100794.66;5075212;28;20473;-69
2023/03/12 07:52:00;;;;;;;43.85;21.85;;;;;;;2.61;100.00;100802.06;5075073;28;20036;-70
2023/03/12 07:54:29;;;;;;;39.78;21.90;;;;;;;2.65;100.00;100800.91;5074691;28;20036;-70
2023/03/12 07:56:55;;;;;;;42.45;20.98;;;;;;;2.69;100.00;100806.00;5074212;28;20039;-72
2023/03/12 07:59:21;;;;;;;41.47;21.23;;;;;;;2.75;100.00;100798.59;5074794;28;20029;-70
2023/03/12 08:01:46;;;;;;;40.85;21.52;;;;;;;2.89;100.00;100802.22;5074575;28;20039;-70
2023/03/12 08:04:12;;;;;;;45.90;22.98;;;;;;;2.99;100.00;100795.47;5075206;28;20465;-70
2023/03/12 08:06:41;;;;;;;44.17;21.98;;;;;;;3.10;100.00;100808.81;5074534;28;20033;-70
2023/03/12 08:09:07;;;;;;;50.50;21.88;;;;;;;3.19;100.00;100804.78;5074676;28;20032;-69
2023/03/12 08:11:33;;;;;;;46.03;22.75;;;;;;;3.23;100.00;100802.84;5055837;28;20481;-70
2023/03/12 08:13:58;;;;;;;51.47;24.00;;;;;;;3.28;100.00;100806.84;5074807;28;20048;-71
2023/03/12 08:16:24;;;;;;;45.75;22.98;;;;;;;3.33;100.00;100802.19;5074781;28;20395;-73
2023/03/12 08:18:49;;;;;;;54.83;24.33;;;;;;;3.39;100.00;100803.59;5075016;28;20465;-72
2023/03/12 08:21:15;;;;;;;43.75;22.25;;;;;;;3.45;100.00;100804.97;5057174;28;20063;-71
2023/03/12 08:23:41;;;;;;;49.92;23.88;;;;;;;3.52;100.00;100808.94;5074332;28;20039;-70
2023/03/12 08:26:06;;;;;;;50.60;23.05;;;;;;;3.59;100.00;100812.88;5074182;28;20037;-70
2023/03/12 08:28:32;;;;;;;55.40;25.02;;;;;;;3.65;100.00;100812.50;5074540;28;20035;-72
2023/03/12 08:30:59;;;;;;;51.85;25.02;;;;;;;3.72;100.00;100812.97;5074245;28;20579;-70
2023/03/12 08:33:25;;;;;;;59.10;25.13;;;;;;;3.79;100.00;100816.94;5074155;28;20035;-71
2023/03/12 08:35:50;;;;;;;59.67;25.02;;;;;;;3.87;100.00;100817.28;5074135;28;20153;-69
2023/03/12 08:38:16;;;;;;;53.35;24.30;;;;;;;3.99;100.00;100831.47;5056355;28;20036;-70
2023/03/12 08:40:41;;;;;;;55.35;23.77;;;;;;;4.08;100.00;100827.41;5056719;28;20115;-71
2023/03/12 08:43:07;;;;;;;53.60;23.60;;;;;;;4.18;100.00;100823.25;5074194;28;20035;-70
2023/03/12 08:45:35;;;;;;;65.15;23.65;;;;;;;4.33;100.00;100824.03;5074290;28;20033;-71
2023/03/12 08:48:05;;;;;;;52.55;21.75;;;;;;;4.45;100.00;100811.88;5073855;28;20086;-69
2023/03/12 08:50:31;;;;;;;49.90;17.70;;;;;;;4.59;100.00;100818.84;5073975;28;20477;-69
2023/03/12 08:52:57;;;;;;;52.13;17.58;;;;;;;4.79;100.00;100817.53;5074107;28;20111;-70
2023/03/12 08:55:23;;;;;;;42.40;14.98;;;;;;;4.93;100.00;100809.56;5073779;28;20082;-69
2023/03/12 08:57:49;;;;;;;34.50;11.52;;;;;;;5.20;100.00;100810.44;5073800;28;20449;-70
2023/03/12 09:00:16;;;;;;;34.65;10.95;;;;;;;5.44;100.00;100808.72;5073565;28;20057;-69
2023/03/12 09:02:43;;;;;;;30.88;9.20;;;;;;;5.67;100.00;100824.75;5073408;28;20043;-69
2023/03/12 09:05:10;;;;;;;32.50;7.80;;;;;;;5.84;100.00;100813.00;5073650;28;20054;-69
2023/03/12 09:07:36;;;;;;;37.67;7.75;;;;;;;6.03;100.00;100817.00;5073435;28;20119;-69
2023/03/12 09:10:01;;;;;;;34.85;7.25;;;;;;;6.19;100.00;100828.16;5073433;28;20039;-70
2023/03/12 09:12:26;;;;;;;25.88;7.30;;;;;;;6.33;100.00;100828.00;5073136;28;20077;-70
2023/03/12 09:14:52;;;;;;;30.58;5.70;;;;;;;6.45;100.00;100828.91;5073250;28;20434;-71
2023/03/12 09:17:17;;;;;;;29.10;5.90;;;;;;;6.58;100.00;100833.28;5073761;28;20036;-71
2023/03/12 09:19:43;;;;;;;25.23;5.57;;;;;;;6.75;100.00;100832.00;5073213;28;20107;-71
2023/03/12 09:22:08;;;;;;;28.88;4.68;;;;;;;6.88;100.00;100832.78;5072907;28;20097;-73
2023/03/12 09:24:34;;;;;;;23.83;5.13;;;;;;;6.98;100.00;100833.78;5073015;28;20132;-73
2023/03/12 09:27:00;;;;;;;21.65;4.97;;;;;;;7.01;100.00;100827.41;5073544;28;20364;-74
2023/03/12 09:29:26;;;;;;;32.75;5.22;;;;;;;7.06;100.00;100831.41;5073503;28;20055;-74
2023/03/12 09:31:51;;;;;;;31.52;5.47;;;;;;;7.12;100.00;100830.09;5073101;28;20433;-73
2023/03/12 09:34:17;;;;;;;24.38;5.03;;;;;;;7.18;100.00;100849.94;5073142;28;20335;-74
2023/03/12 09:36:42;;;;;;;25.38;4.95;;;;;;;7.23;100.00;100855.75;5072947;28;20066;-74
2023/03/12 09:39:08;;;;;;;30.73;5.88;;;;;;;7.28;100.00;100844.81;5072594;28;20524;-74
2023/03/12 09:41:38;;;;;;;28.08;4.75;;;;;;;7.28;100.00;100848.28;5055178;28;20458;-73
2023/03/12 09:44:15;;;;;;;25.55;4.57;;;;;;;7.41;100.00;100843.72;5073100;28;20060;-74
2023/03/12 09:46:49;;;;;;;30.63;4.60;;;;;;;7.54;100.00;100846.28;5073590;28;20020;-72
2023/03/12 09:49:46;;;;;;;25.15;5.93;;;;;;;7.70;100.00;100832.69;5072786;28;20399;-74
2023/03/12 09:52:36;;;;;;;31.15;5.57;;;;;;;7.97;100.00;100841.22;5065559;28;20106;-75
2023/03/12 09:55:13;;;;;;;33.53;5.35;;;;;;;8.06;100.00;100835.19;5072581;28;20024;-75
2023/03/12 09:57:39;;;;;;;33.38;5.35;;;;;;;8.23;100.00;100839.16;5073200;28;20082;-73
2023/03/12 10:00:11;;;;;;;27.90;5.22;;;;;;;8.26;100.00;100833.59;5072578;28;20033;-78
2023/03/12 10:02:48;;;;;;;;;;;;;;;8.25;100.00;100840.69;5073813;28;20056;-74
2023/03/12 10:05:18;;;;;;;29.63;4.85;;;;;;;8.15;100.00;100823.88;5072788;28;19958;-71
2023/03/12 10:08:05;;;;;;;36.47;6.00;;;;;;;8.15;100.00;100836.25;5055036;28;20115;-73
2023/03/12 10:10:56;;;;;;;32.13;4.78;;;;;;;8.33;100.00;100847.19;5072911;28;20055;-72
2023/03/12 10:13:36;;;;;;;34.67;5.18;;;;;;;8.34;100.00;100830.31;5073251;28;20245;-71
2023/03/12 10:16:09;;;;;;;47.53;6.40;;;;;;;8.41;100.00;100839.47;5073037;28;20025;-70
2023/03/12 10:18:51;;;;;;;33.75;4.72;;;;;;;8.50;100.00;100844.03;5073152;28;20028;-71
2023/03/12 10:21:46;;;;;;;35.55;5.28;;;;;;;8.38;100.00;100848.50;5072672;28;20032;-72
2023/03/12 10:24:44;;;;;;;28.60;5.47;;;;;;;8.43;100.00;100842.81;5055087;28;20041;-73
2023/03/12 10:27:17;;;;;;;32.75;5.15;;;;;;;8.29;100.00;100843.94;5072641;28;20090;-72
2023/03/12 10:29:47;;;;;;;36.13;5.30;;;;;;;8.10;100.00;100836.63;5072525;28;20187;-69
2023/03/12 10:32:15;;;;;;;40.25;5.72;;;;;;;7.92;100.00;100839.78;5072790;28;20115;-70
2023/03/12 10:34:56;;;;;;;25.50;4.75;;;;;;;7.80;100.00;100840.75;5073677;28;20024;-71
2023/03/12 10:37:54;;;;;;;;;;;;;;;7.69;100.00;100846.91;5076842;28;20032;-70
2023/03/12 10:40:22;;;;;;;34.95;4.88;;;;;;;7.71;100.00;100844.97;5020784;28;19917;-70
2023/03/12 10:42:48;;;;;;;38.65;5.05;;;;;;;7.71;100.00;100838.81;5076338;28;20449;-71
2023/03/12 10:45:34;;;;;;;31.30;5.38;;;;;;;7.79;100.00;100852.28;5076146;28;20162;-68
2023/03/12 10:48:07;;;;;;;36.38;5.55;;;;;;;7.92;100.00;100846.88;5076190;28;20417;-70
2023/03/12 10:50:38;;;;;;;38.80;5.88;;;;;;;8.04;100.00;100840.59;5076187;28;20036;-72
2023/03/12 10:53:23;;;;;;;48.53;6.05;;;;;;;8.18;100.00;100851.91;5076242;28;20028;-72
2023/03/12 10:56:01;;;;;;;32.47;5.28;;;;;;;8.22;100.00;100858.66;5075855;28;20032;-72
2023/03/12 10:58:34;;;;;;;36.35;5.68;;;;;;;8.22;100.00;100878.03;5075762;28;20475;-73
2023/03/12 11:01:02;;;;;;;41.15;5.28;;;;;;;8.08;100.00;100881.81;5075897;28;20029;-72
2023/03/12 11:03:28;;;;;;;36.35;5.20;;;;;;;8.10;100.00;100877.22;5075988;28;20048;-73
2023/03/12 11:05:57;;;;;;;32.33;5.13;;;;;;;8.04;100.00;100867.09;5058046;28;20067;-73
2023/03/12 11:08:26;;;;;;;35.92;5.28;;;;;;;8.20;100.00;100869.38;5076173;28;20110;-72
2023/03/12 11:10:52;;;;;;;33.15;5.07;;;;;;;8.57;100.00;100876.19;5075639;28;20473;-72
2023/03/12 11:13:39;;;;;;;33.72;5.50;;;;;;;8.91;100.00;100870.75;5075641;28;20055;-72
2023/03/12 11:16:17;;;;;;;31.73;4.80;;;;;;;9.05;100.00;100866.97;5074961;28;20032;-71
2023/03/12 11:18:58;;;;;;;36.90;5.80;;;;;;;9.20;100.00;100871.00;5076047;28;20029;-73
2023/03/12 11:21:24;;;;;;;42.13;5.70;;;;;;;9.24;100.00;100880.38;5075287;28;20058;-72